Latest Weather Observations for Edithburgh

IDS60801

Issued at 9:02 am CST Friday 30 September 2016 (issued every 30 minutes, with the page automatically refreshed every 10 minutes)

About weather observations | Map of weather stations | Latest weather observations for SA | Other Formats
Station Details ID: 022046 Name: EDITHBURGH Lat: -35.11 Lon: 137.74 Height: 6.0 m
Data from the previous 72 hours. | See also: Recent months at Edithburgh
Date/Time
CST
Temp
°C
App
Temp
°C
Dew
Point
°C
Rel
Hum
%
Delta-T
°C
Wind Press
QNH
hPa
Press
MSL
hPa
Rain since
9am
mm
Dir  Spd
km/h
Gust
km/h
Spd
kts
Gust
kts
30/09:00am 13.8 8.8 13.3 97 0.3 SW 32 44 17 24 1003.6 1003.6 6.4
30/08:33am 14.0 9.0 13.3 96 0.4 SW 32 52 17 28 1002.9 1002.9 6.4
30/08:30am 14.1 9.2 13.6 97 0.3 SW 32 37 17 20 1003.0 1003.0 6.4
30/08:00am 13.9 9.1 13.9 100 0.0 SW 32 44 17 24 1002.4 1002.4 6.4
30/07:30am 13.8 9.7 13.8 100 0.0 SW 28 43 15 23 1002.0 1002.0 6.4
30/07:00am 12.9 - - - - WSW 24 35 13 19 1001.6 1001.6 6.4
30/06:30am 12.9 9.3 12.9 100 0.0 WSW 24 35 13 19 1001.1 1001.1 6.4
30/06:00am 12.6 9.6 12.6 100 0.0 WSW 20 28 11 15 1000.8 1000.8 6.4
30/05:30am 12.0 8.8 12.0 100 0.0 WSW 20 30 11 16 1000.6 1000.6 6.4
30/05:00am 12.0 9.4 12.0 100 0.0 WSW 17 28 9 15 999.4 999.4 6.4
30/04:30am 12.1 9.0 12.1 100 0.0 WSW 20 30 11 16 999.5 999.5 6.4
30/04:00am 12.1 9.0 12.1 100 0.0 WSW 20 28 11 15 999.4 999.4 6.4
30/03:30am 11.8 7.8 11.8 100 0.0 WSW 24 32 13 17 999.0 999.0 6.4
30/03:00am 11.8 - - - - SW 20 30 11 16 998.7 998.7 6.4
30/02:30am 11.9 7.9 11.9 100 0.0 WSW 24 35 13 19 998.4 998.4 6.4
30/02:00am 11.7 7.7 11.7 100 0.0 SW 24 33 13 18 998.1 998.1 6.4
30/01:30am 12.1 6.5 12.1 100 0.0 SW 33 44 18 24 997.9 997.9 6.4
30/01:00am 11.5 7.4 11.5 100 0.0 SW 24 33 13 18 997.4 997.4 6.2
30/12:30am 11.4 6.1 11.4 100 0.0 SW 30 41 16 22 996.9 996.9 6.2
30/12:00am 11.7 6.0 11.7 100 0.0 SSW 33 46 18 25 996.6 996.6 6.2
 
Date/Time
CST
Temp
°C
App
Temp
°C
Dew
Point
°C
Rel
Hum
%
Delta-T
°C
Wind Press
QNH
hPa
Press
MSL
hPa
Rain since
9am
mm
Dir  Spd
km/h
Gust
km/h
Spd
kts
Gust
kts
29/11:46pm 11.9 - - - - SW 41 54 22 29 995.9 995.9 6.2
29/11:30pm 12.1 - - - - WSW 46 69 25 37 995.3 995.3 6.2
29/11:00pm 12.2 2.6 12.2 100 0.0 WSW 54 80 29 43 994.5 994.5 5.8
29/10:30pm 11.7 - - - - WSW 50 85 27 46 994.6 994.6 5.8
29/10:00pm 11.6 - - - - WSW 50 72 27 39 994.8 994.8 5.2
29/09:37pm 11.6 - - - - WSW 48 70 26 38 994.7 994.7 4.6
29/09:30pm 11.6 - - - - WSW 50 65 27 35 994.7 994.7 4.4
29/09:00pm 11.7 - - - - WSW 50 76 27 41 994.7 994.7 4.0
29/08:30pm 11.6 - - - - WSW 44 65 24 35 994.1 994.1 3.6
29/08:00pm 11.9 3.0 11.9 100 0.0 WSW 50 76 27 41 993.7 993.7 3.2
29/07:30pm 11.9 3.0 11.9 100 0.0 WSW 50 72 27 39 993.6 993.6 3.2
29/07:00pm 11.6 2.2 11.6 100 0.0 WSW 52 80 28 43 993.1 993.1 3.2
29/06:30pm 11.8 3.2 11.8 100 0.0 WSW 48 70 26 38 992.6 992.6 3.2
29/06:00pm 12.0 2.0 12.0 100 0.0 WSW 56 76 30 41 992.1 992.1 3.0
29/05:30pm 12.1 3.3 12.1 100 0.0 WSW 50 72 27 39 991.3 991.3 3.0
29/05:00pm 12.4 4.0 12.4 100 0.0 WSW 48 69 26 37 990.8 990.8 2.6
29/04:32pm 13.0 5.5 12.8 99 0.1 WSW 44 63 24 34 990.1 990.1 2.4
29/04:30pm 13.0 5.1 12.6 97 0.2 WSW 46 63 25 34 990.0 990.0 2.4
29/04:00pm 12.8 3.4 12.8 100 0.0 WSW 54 80 29 43 989.0 989.0 2.4
29/03:30pm 12.9 2.1 12.5 97 0.2 WSW 61 82 33 44 987.9 987.9 2.4
29/03:00pm 12.7 4.0 12.7 100 0.0 WSW 50 76 27 41 987.2 987.2 2.4
29/02:30pm 13.8 4.4 12.7 93 0.6 WSW 54 78 29 42 986.2 986.2 2.0
29/02:09pm 14.8 7.1 14.5 98 0.2 WSW 48 69 26 37 985.6 985.6 2.0
29/02:00pm 13.7 6.1 13.7 100 0.0 WSW 46 65 25 35 985.4 985.4 2.0
29/01:38pm 12.9 6.0 12.9 100 0.0 W 41 63 22 34 985.1 985.1 2.0
29/01:30pm 12.7 5.4 12.7 100 0.0 W 43 59 23 32 985.5 985.5 1.8
29/01:11pm 12.8 6.3 12.8 100 0.0 WSW 39 57 21 31 985.6 985.6 1.4
29/01:00pm 12.5 6.3 12.5 100 0.0 W 37 50 20 27 985.9 985.9 1.2
29/12:47pm 12.3 6.8 11.9 97 0.2 W 32 56 17 30 985.7 985.7 1.0
29/12:30pm 14.0 7.7 11.0 82 1.6 WSW 35 46 19 25 986.0 986.0 0.0
29/12:00pm 13.9 8.1 10.9 82 1.6 W 32 43 17 23 985.8 985.8 0.0
29/11:30am 15.4 10.0 12.1 81 1.8 W 32 43 17 23 985.5 985.5 0.0
29/11:00am 15.8 9.4 12.0 78 2.1 W 37 52 20 28 985.4 985.4 0.0
29/10:30am 15.1 6.4 10.0 71 2.7 WSW 46 61 25 33 985.0 985.0 0.0
29/10:04am 14.5 6.5 10.6 77 2.0 WSW 43 65 23 35 985.0 985.0 0.0
29/10:00am 14.5 6.7 11.2 80 1.8 WSW 43 59 23 32 985.0 985.0 0.0
29/09:30am 14.2 4.4 10.2 77 2.1 WSW 52 72 28 39 984.1 984.1 0.0
29/09:00am 13.5 4.4 11.3 86 1.2 WSW 50 72 27 39 983.2 983.2 30.2
29/08:30am 12.4 4.0 12.4 100 0.0 WSW 48 69 26 37 982.3 982.3 30.2
29/08:12am 12.3 5.5 12.1 99 0.1 WSW 39 57 21 31 981.8 981.8 30.2
29/08:00am 12.2 5.4 11.8 97 0.2 WSW 39 54 21 29 981.4 981.4 30.2
29/07:30am 11.7 4.3 11.1 96 0.3 WSW 41 63 22 34 979.7 979.7 30.2
29/07:04am 11.3 5.4 11.3 100 0.0 WSW 33 52 18 28 978.2 978.2 30.2
29/07:00am 11.2 5.3 11.2 100 0.0 WSW 33 48 18 26 978.1 978.1 30.2
29/06:30am 10.1 - - - - WNW 30 41 16 22 976.6 976.6 30.2
29/06:00am 9.8 - - - - NW 28 35 15 19 975.8 975.8 30.2
29/05:30am 10.0 - - - - NW 28 41 15 22 975.5 975.5 30.2
29/05:03am 10.1 - - - - NNW 32 52 17 28 975.7 975.7 29.0
29/05:00am 9.9 - - - - NNW 32 46 17 25 976.1 976.1 29.0
29/04:31am 9.7 - - - - NNW 44 65 24 35 977.3 977.3 27.2
29/04:30am 9.7 - - - - NNW 46 65 25 35 977.2 977.2 27.2
29/04:00am 9.4 - - - - NNW 39 70 21 38 978.5 978.5 26.8
29/03:39am 9.4 - - - - N 39 63 21 34 979.1 979.1 24.2
29/03:30am 9.3 - - - - N 37 54 20 29 979.6 979.6 23.0
29/03:00am 9.2 - - - - NNW 44 67 24 36 980.9 980.9 21.2
29/02:54am 9.1 - - - - NNW 43 65 23 35 981.2 981.2 21.2
29/02:30am 9.1 - - - - NNW 41 57 22 31 982.3 982.3 20.8
29/02:00am 9.2 1.3 9.2 100 0.0 NNW 41 56 22 30 983.6 983.6 20.2
29/01:30am 9.2 1.3 9.2 100 0.0 NNW 41 59 22 32 984.8 984.8 20.0
29/01:00am 9.2 3.0 9.2 100 0.0 NNW 32 52 17 28 986.3 986.3 20.0
29/12:51am 9.0 2.5 9.0 100 0.0 NNW 33 52 18 28 986.6 986.6 20.0
29/12:30am 9.0 2.5 9.0 100 0.0 NNW 33 43 18 23 987.3 987.3 20.0
29/12:00am 9.7 3.0 9.5 99 0.1 NNW 35 50 19 27 988.2 988.2 19.4
 
Date/Time
CST
Temp
°C
App
Temp
°C
Dew
Point
°C
Rel
Hum
%
Delta-T
°C
Wind Press
QNH
hPa
Press
MSL
hPa
Rain since
9am
mm
Dir  Spd
km/h
Gust
km/h
Spd
kts
Gust
kts
28/11:30pm 9.5 3.3 9.5 100 0.0 NNW 32 43 17 23 988.7 988.7 19.4
28/11:00pm 9.9 3.2 9.7 99 0.1 NW 35 50 19 27 989.3 989.3 19.4
28/10:30pm 9.9 4.6 9.9 100 0.0 NW 28 39 15 21 990.1 990.1 19.4
28/10:23pm 10.0 3.0 10.0 100 0.0 NW 37 56 20 30 990.4 990.4 19.4
28/10:13pm 9.5 4.5 9.5 100 0.0 WNW 26 56 14 30 990.8 990.8 18.4
28/10:00pm 9.9 6.3 9.9 100 0.0 WNW 19 30 10 16 990.6 990.6 16.2
28/09:30pm 10.1 6.3 9.7 97 0.2 NW 20 28 11 15 990.8 990.8 15.6
28/09:00pm 10.2 6.6 10.0 99 0.1 NW 19 24 10 13 991.2 991.2 15.6
28/08:30pm 10.7 7.0 10.3 97 0.2 WNW 20 28 11 15 991.4 991.4 15.6
28/08:00pm 10.4 6.8 10.4 100 0.0 WNW 20 26 11 14 991.2 991.2 15.6
28/07:42pm 10.6 5.5 10.6 100 0.0 WNW 28 44 15 24 991.2 991.2 15.4
28/07:30pm 10.7 7.7 10.7 100 0.0 WNW 17 24 9 13 991.0 991.0 15.4
28/07:00pm 11.0 7.2 11.0 100 0.0 W 22 35 12 19 990.6 990.6 15.4
28/06:42pm 11.5 6.3 11.5 100 0.0 NW 30 52 16 28 990.5 990.5 15.4
28/06:30pm 11.7 7.7 11.7 100 0.0 NW 24 32 13 17 990.4 990.4 15.2
28/06:00pm 11.8 8.2 11.8 100 0.0 WNW 22 32 12 17 990.0 990.0 15.0
28/05:30pm 12.0 7.2 11.8 99 0.1 W 28 41 15 22 989.4 989.4 15.0
28/05:12pm 12.3 6.8 12.3 100 0.0 W 33 52 18 28 989.7 989.7 15.0
28/05:00pm 12.4 5.4 12.4 100 0.0 W 41 57 22 31 989.7 989.7 15.0
28/04:53pm 12.6 5.2 12.6 100 0.0 WNW 43 67 23 36 989.3 989.3 15.0
28/04:49pm 13.2 7.6 13.2 100 0.0 NW 35 67 19 36 989.4 989.4 15.0
28/04:47pm 13.9 9.4 13.9 100 0.0 NW 30 67 16 36 989.7 989.7 14.8
28/04:30pm 13.9 12.3 13.9 100 0.0 NNW 15 26 8 14 989.4 989.4 14.2
28/04:00pm 13.7 12.4 13.7 100 0.0 NNW 13 20 7 11 988.9 988.9 14.2
28/03:30pm 13.3 11.9 13.3 100 0.0 N 13 28 7 15 989.4 989.4 12.6
28/03:00pm 14.0 9.0 13.3 96 0.4 ENE 32 43 17 23 989.1 989.1 7.4
28/02:32pm 13.4 7.0 13.2 99 0.1 ENE 39 67 21 36 989.0 989.0 7.4
28/02:30pm 13.5 7.5 13.3 99 0.1 ENE 37 56 20 30 989.4 989.4 7.4
28/02:19pm 13.6 7.0 13.6 100 0.0 ENE 41 61 22 33 989.7 989.7 7.4
28/02:00pm 13.7 5.8 13.7 100 0.0 NE 48 63 26 34 990.5 990.5 7.4
28/01:45pm 12.9 5.1 12.9 100 0.0 NE 46 65 25 35 991.6 991.6 7.4
28/01:30pm 12.7 4.0 12.7 100 0.0 NE 50 67 27 36 992.3 992.3 7.4
28/01:00pm 13.4 6.1 13.4 100 0.0 NE 44 63 24 34 993.9 993.9 7.4
28/12:30pm 13.1 5.7 13.1 100 0.0 NE 44 63 24 34 994.2 994.2 7.2
28/12:29pm 13.0 5.6 13.0 100 0.0 NE 44 63 24 34 994.4 994.4 7.2
28/12:06pm 13.1 7.0 13.1 100 0.0 NE 37 57 20 31 996.4 996.4 6.6
28/12:00pm 12.9 7.7 12.9 100 0.0 NNE 32 50 17 27 997.2 997.2 6.2
28/11:54am 12.9 8.5 12.9 100 0.0 NNE 28 46 15 25 997.7 997.7 5.2
28/11:47am 12.9 8.4 12.5 97 0.2 NNE 28 44 15 24 998.0 998.0 4.4
28/11:30am 13.5 11.4 12.4 93 0.6 N 15 24 8 13 999.1 999.1 1.6
28/11:00am 14.6 11.5 11.6 82 1.6 N 19 26 10 14 999.8 999.8 0.0
28/10:30am 14.7 10.5 11.2 79 1.9 NE 24 37 13 20 998.0 998.0 0.0
28/10:00am 14.4 8.5 10.6 78 2.0 NE 32 43 17 23 999.0 999.0 0.0
28/09:30am 15.4 9.9 10.7 73 2.5 NE 30 43 16 23 1000.4 1000.4 0.0
28/09:00am 15.1 10.5 11.2 77 2.1 NNE 26 39 14 21 1001.7 1001.7 0.0
28/08:30am 14.4 9.5 11.4 82 1.6 NE 28 39 15 21 1002.5 1002.5 0.0
28/08:00am 13.8 9.4 11.6 86 1.2 NE 26 37 14 20 1003.5 1003.5 0.0
28/07:30am 13.0 8.0 11.1 88 1.0 NE 28 37 15 20 1003.8 1003.8 0.0
28/07:00am 12.7 8.5 11.0 89 0.9 NE 24 37 13 20 1004.7 1004.7 0.0
28/06:30am 12.4 7.7 10.7 89 0.9 NE 26 37 14 20 1005.1 1005.1 0.0
28/06:00am 12.4 8.8 10.7 89 0.9 NE 20 32 11 17 1005.8 1005.8 0.0
28/05:30am 12.5 9.1 10.6 88 1.0 NE 19 30 10 16 1006.0 1006.0 0.0
28/05:00am 12.5 9.1 10.6 88 1.0 NE 19 26 10 14 1006.7 1006.7 0.0
28/04:30am 12.5 9.6 11.0 90 0.8 NE 17 24 9 13 1007.1 1007.1 0.0
28/04:00am 12.6 9.6 10.7 88 1.0 NE 17 22 9 12 1007.4 1007.4 0.0
28/03:30am 12.9 10.3 10.8 87 1.1 NE 15 19 8 10 1007.8 1007.8 0.0
28/03:00am 12.9 10.1 10.0 82 1.5 NE 15 20 8 11 1008.3 1008.3 0.0
28/02:30am 12.9 10.4 9.6 80 1.7 NNE 13 19 7 10 1008.8 1008.8 0.0
28/02:00am 12.9 9.9 9.1 78 1.9 NNE 15 22 8 12 1009.5 1009.5 0.0
28/01:30am 11.9 9.5 9.9 87 1.0 NNE 13 19 7 10 1010.0 1010.0 0.0
28/01:00am 10.0 7.9 8.4 90 0.8 NNE 9 19 5 10 1010.7 1010.7 0.0
28/12:30am 7.0 4.8 6.1 94 0.4 N 7 9 4 5 1011.2 1011.2 0.0
28/12:00am 6.3 4.0 4.9 91 0.6 N 6 7 3 4 1011.4 1011.4 0.0
 
Date/Time
CST
Temp
°C
App
Temp
°C
Dew
Point
°C
Rel
Hum
%
Delta-T
°C
Wind Press
QNH
hPa
Press
MSL
hPa
Rain since
9am
mm
Dir  Spd
km/h
Gust
km/h
Spd
kts
Gust
kts
27/11:30pm 6.7 4.2 4.9 88 0.8 N 7 9 4 5 1011.7 1011.7 0.0
27/11:00pm 7.3 5.0 5.5 88 0.8 N 7 7 4 4 1011.8 1011.8 0.0
27/10:30pm 7.6 5.5 5.6 87 0.9 N 6 7 3 4 1012.1 1012.1 0.0
27/10:00pm 8.6 7.1 6.9 89 0.8 N 4 6 2 3 1012.4 1012.4 0.0
27/09:30pm 9.3 7.5 7.2 87 1.0 N 6 7 3 4 1012.7 1012.7 0.0
27/09:00pm 9.7 8.3 7.4 85 1.1 N 4 6 2 3 1013.0 1013.0 0.0
27/08:30pm 10.5 9.1 7.4 81 1.5 N 4 6 2 3 1013.1 1013.1 0.0
27/08:00pm 9.7 8.0 7.4 85 1.1 N 6 6 3 3 1013.4 1013.4 0.0
27/07:30pm 11.8 10.7 8.3 79 1.7 ENE 4 6 2 3 1013.3 1013.3 0.0
27/07:00pm 12.6 11.5 8.6 76 2.0 ESE 4 6 2 3 1013.2 1013.2 0.0
27/06:30pm 13.6 12.9 8.6 72 2.5 E 2 4 1 2 1013.4 1013.4 0.0
27/06:00pm 14.1 13.6 9.2 72 2.5 ENE 2 6 1 3 1013.4 1013.4 0.0
27/05:30pm 14.8 14.3 9.3 69 2.8 N 2 4 1 2 1013.4 1013.4 0.0
27/05:00pm 14.8 13.5 9.1 68 2.9 NNW 6 7 3 4 1013.4 1013.4 0.0
27/04:30pm 15.3 13.2 8.4 63 3.5 NW 9 11 5 6 1013.3 1013.3 0.0
27/04:00pm 15.3 12.6 8.8 65 3.3 NW 13 17 7 9 1013.4 1013.4 0.0
27/03:30pm 15.3 12.1 8.4 63 3.5 NW 15 20 8 11 1013.6 1013.6 0.0
27/03:00pm 15.6 12.4 8.5 62 3.6 NW 15 24 8 13 1013.7 1013.7 0.0
27/02:30pm 15.2 11.5 7.8 61 3.7 NW 17 24 9 13 1013.8 1013.8 0.0
27/02:00pm 15.5 10.8 7.7 59 3.9 NW 22 33 12 18 1014.2 1014.2 0.0
27/01:30pm 16.4 12.0 8.8 60 3.9 NW 22 32 12 17 1014.4 1014.4 0.0
27/01:00pm 17.0 12.1 8.4 57 4.4 NW 24 33 13 18 1014.5 1014.5 0.0
27/12:30pm 16.7 11.8 8.5 58 4.2 NW 24 32 13 17 1014.8 1014.8 0.0
27/12:00pm 16.3 10.9 8.0 58 4.2 NW 26 39 14 21 1015.0 1015.0 0.0
27/11:30am 16.5 12.3 9.8 64 3.5 NW 22 32 12 17 1015.3 1015.3 0.0
27/11:00am 16.3 13.2 12.1 76 2.3 NW 20 32 11 17 1015.3 1015.3 0.0
27/10:30am 15.1 10.6 12.5 84 1.4 NW 28 35 15 19 1015.7 1015.7 0.0
27/10:00am 16.2 13.7 14.1 87 1.2 NW 20 30 11 16 1015.8 1015.8 0.0
27/09:30am 15.6 12.7 14.0 90 0.9 NW 22 30 12 16 1016.0 1016.0 0.0

Other Formats:

Comma delimited format used in spreadsheet applications
http://www.bom.gov.au/fwo/IDS60801/IDS60801.94809.axf

JavaScript Object Notation format (JSON) in row-major order
http://www.bom.gov.au/fwo/IDS60801/IDS60801.94809.json